Time;durP1;ratioP1;P1;durP2;ratioP2;P2;SDS_P1;SDS_P2;PMS_P1;PMS_P2;Temp;Humidity;BMP_temperature;BMP_pressure;BME280_temperature;BME280_humidity;BME280_pressure;Samples;Min_cycle;Max_cycle;Signal;HPM_P1;HPM_P2
2022/07/20 00:00:49;;;;;;;9.05;3.08;;;23.60;85.50;;;;;;4982250;28;20141;-69
2022/07/20 00:03:15;;;;;;;6.03;2.60;;;23.60;86.20;;;;;;4982032;28;20046;-69
2022/07/20 00:05:42;;;;;;;8.25;2.70;;;23.60;85.10;;;;;;4995759;28;20574;-69
2022/07/20 00:08:09;;;;;;;8.75;2.70;;;23.60;85.10;;;;;;4989679;28;20039;-69
2022/07/20 00:13:21;;;;;;;7.30;2.40;;;23.50;84.80;;;;;;4990248;28;20123;-69
2022/07/20 00:15:47;;;;;;;7.03;2.63;;;23.50;84.60;;;;;;4981997;28;20050;-70
2022/07/20 00:18:13;;;;;;;6.60;2.70;;;23.50;84.50;;;;;;4979929;28;20152;-70
2022/07/20 00:20:39;;;;;;;8.23;2.70;;;23.50;84.40;;;;;;4981310;28;20399;-70
2022/07/20 00:23:07;;;;;;;5.93;2.53;;;23.50;84.50;;;;;;4964295;28;20058;-70
2022/07/20 00:25:33;;;;;;;7.82;2.60;;;23.40;84.40;;;;;;5000591;28;20046;-70
2022/07/20 00:27:59;;;;;;;7.72;2.80;;;23.40;84.40;;;;;;4983914;28;20049;-70
2022/07/20 00:30:25;;;;;;;9.57;2.60;;;23.30;84.20;;;;;;4981728;28;20085;-70
2022/07/20 00:32:51;;;;;;;8.60;2.67;;;23.30;84.00;;;;;;4980793;28;20046;-69
2022/07/20 00:35:17;;;;;;;8.38;2.60;;;23.30;84.10;;;;;;4968446;28;20061;-69
2022/07/20 00:37:44;;;;;;;7.90;2.90;;;23.30;84.00;;;;;;4978039;28;20054;-69
2022/07/20 00:40:12;;;;;;;5.50;2.65;;;23.30;83.80;;;;;;4991254;28;20056;-69
2022/07/20 00:42:38;;;;;;;5.90;2.60;;;23.30;84.10;;;;;;4997321;28;20120;-71
2022/07/20 00:45:06;;;;;;;7.22;2.60;;;23.20;83.90;;;;;;4988831;28;20054;-69
2022/07/20 00:47:32;;;;;;;6.15;2.70;;;23.20;83.80;;;;;;4986704;28;20038;-71
2022/07/20 00:49:58;;;;;;;6.53;2.85;;;23.20;83.90;;;;;;4982966;28;20051;-70
2022/07/20 00:52:24;;;;;;;12.25;2.67;;;23.20;83.80;;;;;;4998111;28;20054;-70
2022/07/20 00:54:50;;;;;;;6.53;2.60;;;23.20;83.70;;;;;;4999862;28;20168;-70
2022/07/20 00:57:16;;;;;;;6.72;2.65;;;23.10;83.90;;;;;;4996718;28;20048;-70
2022/07/20 00:59:45;;;;;;;8.18;2.72;;;23.10;83.80;;;;;;4969289;28;20417;-70
2022/07/20 01:02:11;;;;;;;8.85;3.35;;;23.00;83.80;;;;;;5065127;28;20054;-70
2022/07/20 01:04:37;;;;;;;10.73;2.63;;;23.00;83.70;;;;;;4991335;28;20054;-70
2022/07/20 01:07:03;;;;;;;8.70;2.63;;;22.90;83.80;;;;;;4985679;28;20069;-70
2022/07/20 01:09:29;;;;;;;10.85;2.70;;;22.90;83.70;;;;;;4994859;28;20598;-70
2022/07/20 01:11:54;;;;;;;9.05;2.65;;;22.90;84.00;;;;;;4983811;28;20590;-70
2022/07/20 01:14:20;;;;;;;7.07;2.75;;;22.80;84.00;;;;;;4979921;28;20050;-70
2022/07/20 01:16:46;;;;;;;7.35;2.35;;;22.80;84.10;;;;;;4969778;28;20053;-67
2022/07/20 01:19:11;;;;;;;6.20;2.83;;;22.80;84.20;;;;;;4987342;28;20121;-70
2022/07/20 01:21:40;;;;;;;6.68;2.92;;;22.70;84.10;;;;;;4984212;28;20045;-70
2022/07/20 01:24:11;;;;;;;8.60;2.88;;;22.60;84.30;;;;;;4985210;28;20115;-70
2022/07/20 01:26:44;;;;;;;6.05;2.55;;;22.60;84.40;;;;;;4984829;28;20046;-69
2022/07/20 01:29:11;;;;;;;6.95;2.88;;;22.50;84.60;;;;;;4983650;28;20046;-70
2022/07/20 01:31:37;;;;;;;7.32;3.10;;;22.50;84.80;;;;;;4985288;28;20122;-70
2022/07/20 01:34:05;;;;;;;8.35;2.90;;;22.40;85.00;;;;;;5001720;28;20050;-70
2022/07/20 01:36:31;;;;;;;9.32;3.05;;;22.40;85.10;;;;;;4984650;28;20038;-70
2022/07/20 01:38:57;;;;;;;9.75;2.58;;;22.30;85.40;;;;;;4993978;28;20525;-70
2022/07/20 01:41:23;;;;;;;11.52;3.08;;;22.20;85.70;;;;;;4982680;28;20125;-70
2022/07/20 01:43:49;;;;;;;10.60;3.00;;;22.10;85.80;;;;;;4986269;28;20118;-70
2022/07/20 01:46:14;;;;;;;8.60;2.83;;;22.10;86.10;;;;;;4986957;28;20042;-70
2022/07/20 01:48:41;;;;;;;5.28;2.45;;;22.00;86.20;;;;;;4971114;28;20562;-70
2022/07/20 01:51:07;;;;;;;6.07;2.67;;;22.00;86.40;;;;;;4985331;28;20050;-70
2022/07/20 01:53:32;;;;;;;8.15;2.72;;;21.90;86.40;;;;;;4985495;28;20064;-70
2022/07/20 01:55:58;;;;;;;8.43;2.60;;;21.90;86.70;;;;;;4985752;28;20121;-70
2022/07/20 01:58:27;;;;;;;8.88;3.00;;;21.80;86.90;;;;;;5005167;28;20062;-70
2022/07/20 02:00:52;;;;;;;10.02;2.78;;;21.80;86.90;;;;;;4994030;28;20042;-70
2022/07/20 02:03:18;;;;;;;7.18;2.72;;;21.70;87.20;;;;;;4985888;28;20062;-70
2022/07/20 02:05:44;;;;;;;7.35;2.90;;;21.70;87.40;;;;;;4985216;28;20038;-70
2022/07/20 02:08:12;;;;;;;8.68;2.63;;;21.60;87.60;;;;;;4988006;28;20107;-70
2022/07/20 02:10:38;;;;;;;6.53;2.70;;;21.50;87.80;;;;;;4968709;28;20145;-70
2022/07/20 02:13:04;;;;;;;6.20;3.00;;;21.50;87.90;;;;;;4991168;28;20470;-70
2022/07/20 02:18:14;;;;;;;8.20;3.10;;;21.40;88.30;;;;;;5010817;28;20069;-70
2022/07/20 02:20:41;;;;;;;6.47;2.92;;;21.40;88.70;;;;;;4995461;28;20487;-70
2022/07/20 02:23:11;;;;;;;7.65;2.97;;;21.30;88.60;;;;;;5006874;28;20042;-70
2022/07/20 02:25:39;;;;;;;5.78;2.60;;;21.40;89.50;;;;;;5005205;28;20162;-71
2022/07/20 02:28:07;;;;;;;6.80;2.90;;;21.30;89.00;;;;;;4999855;28;20045;-70
2022/07/20 02:30:33;;;;;;;5.78;2.75;;;21.20;89.20;;;;;;4968424;28;20141;-71
2022/07/20 02:33:01;;;;;;;8.80;2.88;;;21.20;90.00;;;;;;4979831;28;20456;-70
2022/07/20 02:35:27;;;;;;;7.82;2.80;;;21.10;89.80;;;;;;4992887;28;20045;-70
2022/07/20 02:37:52;;;;;;;7.10;2.95;;;21.10;90.00;;;;;;4997716;28;20040;-70
2022/07/20 02:40:18;;;;;;;8.77;2.97;;;21.00;90.00;;;;;;5010104;28;20594;-70
2022/07/20 02:42:44;;;;;;;10.98;3.30;;;21.00;90.10;;;;;;5000999;28;20505;-71
2022/07/20 02:45:10;;;;;;;7.15;3.03;;;20.90;90.20;;;;;;5008667;28;20065;-71
2022/07/20 02:47:43;;;;;;;8.85;2.83;;;20.90;90.30;;;;;;5007379;28;20101;-70
2022/07/20 02:50:12;;;;;;;7.35;2.95;;;20.80;90.30;;;;;;4984209;28;20145;-70
2022/07/20 02:52:40;;;;;;;9.10;2.90;;;20.90;90.40;;;;;;5005962;28;20140;-70
2022/07/20 02:55:09;;;;;;;8.32;2.80;;;20.80;90.40;;;;;;5010008;28;20050;-70
2022/07/20 02:57:35;;;;;;;9.80;3.05;;;20.80;90.50;;;;;;4998492;28;20042;-71
2022/07/20 03:00:03;;;;;;;6.63;3.08;;;20.80;90.40;;;;;;4998938;28;20034;-70
2022/07/20 03:02:28;;;;;;;6.95;2.97;;;20.80;90.40;;;;;;4992713;28;20111;-70
2022/07/20 03:04:54;;;;;;;9.55;2.70;;;20.80;90.50;;;;;;5001818;28;20716;-70
2022/07/20 03:07:20;;;;;;;7.97;2.60;;;20.80;90.40;;;;;;4997308;28;20464;-70
2022/07/20 03:09:45;;;;;;;9.23;3.03;;;20.90;90.40;;;;;;4992820;28;20584;-70
2022/07/20 03:12:11;;;;;;;8.18;2.95;;;20.90;90.30;;;;;;4997434;28;20134;-70
2022/07/20 03:14:37;;;;;;;7.40;3.00;;;21.00;90.20;;;;;;4999561;28;20042;-70
2022/07/20 03:17:03;;;;;;;8.18;3.30;;;21.00;90.10;;;;;;4977447;28;20054;-70
2022/07/20 03:19:28;;;;;;;6.97;2.90;;;21.10;90.00;;;;;;4987411;28;20053;-70
2022/07/20 03:21:54;;;;;;;6.07;2.70;;;21.10;90.00;;;;;;4996729;28;20050;-70
2022/07/20 03:24:20;;;;;;;8.02;3.10;;;21.10;90.00;;;;;;5016478;28;20054;-71
2022/07/20 03:26:45;;;;;;;9.32;3.13;;;21.10;90.30;;;;;;5015955;28;20091;-70
2022/07/20 03:29:14;;;;;;;9.02;2.67;;;21.10;89.80;;;;;;5000725;28;20546;-71
2022/07/20 03:31:39;;;;;;;7.40;2.90;;;21.10;89.80;;;;;;5003630;28;20070;-70
2022/07/20 03:34:05;;;;;;;10.35;3.40;;;21.10;89.80;;;;;;5002884;28;20125;-70
2022/07/20 03:36:31;;;;;;;7.72;3.35;;;21.10;89.80;;;;;;4989247;28;20388;-70
2022/07/20 03:38:56;;;;;;;7.05;3.03;;;21.20;89.40;;;;;;4994564;28;20488;-70
2022/07/20 03:41:22;;;;;;;8.02;3.30;;;21.20;89.40;;;;;;4989190;28;20050;-70
2022/07/20 03:43:49;;;;;;;8.75;3.28;;;21.20;89.40;;;;;;4996767;28;20042;-70
2022/07/20 03:46:17;;;;;;;11.30;3.00;;;21.20;89.40;;;;;;4994382;28;20090;-71
2022/07/20 03:48:44;;;;;;;7.88;2.83;;;21.20;89.40;;;;;;4997980;28;20050;-70
2022/07/20 03:51:09;;;;;;;8.98;2.92;;;21.20;89.20;;;;;;4990535;28;20066;-71
2022/07/20 03:53:35;;;;;;;7.55;3.15;;;21.20;89.60;;;;;;4979902;28;20520;-70
2022/07/20 03:56:01;;;;;;;8.85;3.10;;;21.20;89.40;;;;;;4987993;28;20054;-71
2022/07/20 03:58:26;;;;;;;11.00;3.47;;;21.20;89.20;;;;;;4988538;28;20050;-71
2022/07/20 04:00:52;;;;;;;5.95;2.58;;;21.20;89.30;;;;;;4985782;28;20523;-70
2022/07/20 04:03:17;;;;;;;6.97;3.00;;;21.30;89.30;;;;;;4987310;28;20053;-70
2022/07/20 04:05:43;;;;;;;8.60;3.13;;;21.30;89.00;;;;;;4990080;28;20049;-72
2022/07/20 04:08:09;;;;;;;6.85;3.00;;;21.40;88.90;;;;;;4997707;28;20057;-71
2022/07/20 04:10:35;;;;;;;5.82;2.80;;;21.40;88.90;;;;;;4997877;28;20036;-70
2022/07/20 04:13:04;;;;;;;8.30;2.95;;;21.40;88.90;;;;;;5005203;28;20495;-70
2022/07/20 04:15:29;;;;;;;8.45;3.15;;;21.50;88.50;;;;;;5004579;28;20125;-70
2022/07/20 04:17:55;;;;;;;8.40;2.80;;;21.50;88.40;;;;;;4998335;28;20593;-71
2022/07/20 04:20:21;;;;;;;7.18;3.22;;;21.50;88.70;;;;;;4990534;28;20157;-70
2022/07/20 04:22:47;;;;;;;8.77;2.72;;;21.60;88.60;;;;;;4986421;28;20042;-70
2022/07/20 04:25:13;;;;;;;7.07;3.10;;;21.60;89.10;;;;;;4991234;28;20038;-71
2022/07/20 04:27:38;;;;;;;6.97;2.70;;;21.60;88.70;;;;;;4996422;28;20042;-71
2022/07/20 04:30:05;;;;;;;9.18;2.95;;;21.60;88.70;;;;;;4990947;28;20104;-71
2022/07/20 04:32:30;;;;;;;7.93;2.90;;;21.60;88.90;;;;;;4996129;28;20517;-70
2022/07/20 04:34:56;;;;;;;8.90;2.80;;;21.60;88.70;;;;;;4983532;28;20046;-71
2022/07/20 04:37:22;;;;;;;7.95;2.70;;;21.70;89.00;;;;;;5021360;28;20525;-71
2022/07/20 04:39:48;;;;;;;10.68;3.22;;;21.80;89.20;;;;;;5004253;28;20038;-71
2022/07/20 04:42:14;;;;;;;7.38;3.35;;;22.60;88.70;;;;;;5004894;28;20066;-72
2022/07/20 04:44:40;;;;;;;11.95;3.13;;;23.70;87.90;;;;;;5033064;28;20775;-70
2022/07/20 04:47:06;;;;;;;9.65;3.40;;;24.80;87.10;;;;;;5022529;28;20050;-70
2022/07/20 04:49:32;;;;;;;12.02;2.72;;;25.70;84.40;;;;;;4983617;28;20042;-70
2022/07/20 04:51:57;;;;;;;7.25;2.90;;;26.50;83.50;;;;;;4987606;28;20042;-70
2022/07/20 04:54:23;;;;;;;6.07;3.00;;;27.30;81.70;;;;;;4985495;28;20209;-71
2022/07/20 04:56:50;;;;;;;10.07;2.80;;;27.80;79.60;;;;;;5019025;28;20046;-71
2022/07/20 04:59:15;;;;;;;7.60;2.88;;;28.40;78.60;;;;;;4974937;28;20053;-72
2022/07/20 05:01:41;;;;;;;8.30;2.92;;;28.90;76.40;;;;;;4964336;28;20035;-72
2022/07/20 05:04:07;;;;;;;8.77;2.88;;;29.40;76.50;;;;;;4992539;28;20047;-71
2022/07/20 05:06:33;;;;;;;6.82;3.10;;;30.00;75.20;;;;;;4987138;28;20046;-71
2022/07/20 05:08:58;;;;;;;6.88;3.05;;;30.40;72.80;;;;;;5019446;28;20075;-69
2022/07/20 05:11:26;;;;;;;9.70;3.10;;;30.80;72.20;;;;;;4983672;28;20057;-68
2022/07/20 05:13:53;;;;;;;6.85;3.10;;;31.10;69.30;;;;;;4984180;28;20411;-69
2022/07/20 05:16:19;;;;;;;8.68;3.15;;;31.40;69.00;;;;;;4983262;28;20054;-69
2022/07/20 05:18:44;;;;;;;6.57;2.90;;;31.80;68.80;;;;;;4984122;28;20035;-68
2022/07/20 05:21:10;;;;;;;12.27;2.92;;;32.10;68.30;;;;;;5022190;27;20050;-71
2022/07/20 05:23:37;;;;;;;7.65;2.80;;;32.50;67.20;;;;;;4989297;28;20043;-71
2022/07/20 05:26:03;;;;;;;10.55;2.95;;;32.90;67.50;;;;;;4979503;28;20065;-70
2022/07/20 05:28:29;;;;;;;7.28;2.95;;;32.20;66.30;;;;;;4988080;28;20685;-70
2022/07/20 05:30:55;;;;;;;8.88;2.97;;;31.00;65.90;;;;;;4979579;28;20034;-70
2022/07/20 05:33:21;;;;;;;5.78;2.78;;;29.90;65.80;;;;;;4970427;28;20045;-70
2022/07/20 05:35:49;;;;;;;8.60;2.80;;;28.90;66.50;;;;;;4994213;28;20065;-70
2022/07/20 05:38:15;;;;;;;6.65;3.10;;;28.20;67.40;;;;;;5006938;28;20161;-70
2022/07/20 05:40:41;;;;;;;8.18;3.05;;;27.50;67.80;;;;;;4987967;28;20114;-70
2022/07/20 05:43:09;;;;;;;9.57;2.90;;;26.90;68.60;;;;;;4984857;28;20165;-70
2022/07/20 05:45:35;;;;;;;7.68;3.13;;;26.40;69.70;;;;;;4985858;28;20042;-70
2022/07/20 05:48:01;;;;;;;6.82;3.08;;;26.00;69.80;;;;;;4984524;28;21030;-70
2022/07/20 05:50:27;;;;;;;13.98;3.10;;;25.70;69.90;;;;;;5018352;28;20038;-71
2022/07/20 05:52:52;;;;;;;6.43;2.88;;;25.50;70.00;;;;;;4980245;28;21153;-71
2022/07/20 05:55:18;;;;;;;8.50;2.80;;;25.30;70.70;;;;;;4986024;28;20050;-71
2022/07/20 05:57:44;;;;;;;7.05;2.78;;;25.20;71.50;;;;;;4981655;28;20045;-71
2022/07/20 06:00:10;;;;;;;8.23;3.70;;;25.00;71.70;;;;;;4980976;28;20719;-70
2022/07/20 06:02:36;;;;;;;5.50;3.00;;;25.00;72.00;;;;;;4984841;28;20055;-71
2022/07/20 06:05:02;;;;;;;8.35;2.75;;;24.90;72.50;;;;;;4998551;28;20571;-70
2022/07/20 06:07:28;;;;;;;9.90;3.40;;;24.90;72.90;;;;;;4989179;28;20054;-71
2022/07/20 06:09:53;;;;;;;12.27;3.25;;;24.80;73.20;;;;;;4985160;28;20050;-71
2022/07/20 06:12:19;;;;;;;7.75;3.13;;;24.90;73.60;;;;;;5016468;27;20061;-70
2022/07/20 06:14:45;;;;;;;12.10;3.25;;;24.90;74.10;;;;;;4982151;28;20036;-71
2022/07/20 06:17:11;;;;;;;8.95;3.00;;;24.90;74.60;;;;;;5015246;28;20046;-70
2022/07/20 06:19:38;;;;;;;9.13;3.30;;;24.90;74.20;;;;;;4993342;28;20111;-70
2022/07/20 06:22:03;;;;;;;10.02;3.78;;;24.90;73.80;;;;;;4995169;28;20789;-72
2022/07/20 06:24:29;;;;;;;9.73;3.17;;;25.00;73.60;;;;;;4984692;28;20058;-71
2022/07/20 06:26:55;;;;;;;6.43;3.00;;;25.00;73.30;;;;;;4984878;28;20053;-71
2022/07/20 06:29:20;;;;;;;9.35;3.15;;;25.20;73.80;;;;;;4977039;28;20050;-71
2022/07/20 06:31:46;;;;;;;10.73;3.40;;;25.20;74.00;;;;;;4981821;28;20034;-72
2022/07/20 06:34:13;;;;;;;9.55;3.40;;;25.20;73.70;;;;;;4966963;28;20074;-70
2022/07/20 06:36:39;;;;;;;7.10;3.10;;;25.50;74.00;;;;;;5021369;28;20068;-70
2022/07/20 06:39:04;;;;;;;11.27;3.30;;;26.40;74.00;;;;;;4970983;28;20487;-71
2022/07/20 06:41:30;;;;;;;8.30;3.42;;;27.60;73.40;;;;;;4988724;28;20440;-70
2022/07/20 06:43:56;;;;;;;8.45;3.35;;;28.90;72.20;;;;;;5019516;28;20133;-70
2022/07/20 06:46:21;;;;;;;8.20;3.38;;;28.40;71.40;;;;;;4987615;28;20036;-72
2022/07/20 06:48:47;;;;;;;7.97;2.90;;;27.60;71.70;;;;;;4986987;28;20118;-69
2022/07/20 06:51:13;;;;;;;11.15;3.97;;;27.10;72.70;;;;;;4983692;28;20104;-72
2022/07/20 06:53:38;;;;;;;7.85;3.47;;;26.70;72.80;;;;;;4991732;28;20051;-69
2022/07/20 06:56:04;;;;;;;11.48;4.13;;;26.40;73.40;;;;;;4987660;28;20069;-70
2022/07/20 06:58:30;;;;;;;10.75;3.78;;;26.20;74.00;;;;;;4989181;28;20088;-72
2022/07/20 07:00:56;;;;;;;12.98;4.30;;;26.10;74.50;;;;;;4971775;28;20552;-70
2022/07/20 07:03:21;;;;;;;12.43;4.20;;;26.10;75.20;;;;;;4987847;28;20042;-71
2022/07/20 07:05:47;;;;;;;11.05;4.30;;;26.00;75.00;;;;;;4981603;28;20042;-69
2022/07/20 07:08:13;;;;;;;7.78;4.50;;;25.90;75.20;;;;;;4988549;28;20077;-70
2022/07/20 07:10:39;;;;;;;10.38;4.65;;;25.90;75.80;;;;;;4982539;28;21907;-71
2022/07/20 07:13:04;;;;;;;10.77;4.40;;;25.90;76.40;;;;;;4969835;28;20411;-70
2022/07/20 07:15:30;;;;;;;13.15;4.95;;;25.90;76.60;;;;;;4978568;28;20042;-71
2022/07/20 07:17:56;;;;;;;11.80;5.03;;;26.00;77.40;;;;;;5000164;28;20054;-68
2022/07/20 07:20:22;;;;;;;15.80;4.97;;;26.00;77.90;;;;;;5015744;28;20048;-69
2022/07/20 07:22:48;;;;;;;14.55;5.32;;;26.20;79.10;;;;;;4994367;28;20070;-71
2022/07/20 07:25:14;;;;;;;11.95;4.78;;;26.40;79.90;;;;;;4984737;28;20046;-71
2022/07/20 07:27:39;;;;;;;12.07;5.13;;;26.60;80.50;;;;;;4995690;28;20053;-70
2022/07/20 07:30:06;;;;;;;11.73;5.45;;;26.90;80.40;;;;;;4999285;28;20053;-71
2022/07/20 07:32:32;;;;;;;16.92;5.95;;;27.30;80.50;;;;;;4981939;28;20050;-69
2022/07/20 07:34:58;;;;;;;13.52;6.35;;;27.70;81.00;;;;;;4995752;28;20138;-69
2022/07/20 07:37:24;;;;;;;12.25;5.50;;;28.40;81.00;;;;;;4989134;28;20520;-70
2022/07/20 07:39:49;;;;;;;15.65;5.97;;;29.70;80.70;;;;;;4997664;28;20093;-70
2022/07/20 07:42:15;;;;;;;10.75;5.72;;;30.20;78.50;;;;;;5004904;28;20478;-70
2022/07/20 07:44:41;;;;;;;15.25;6.65;;;30.30;79.30;;;;;;4987016;28;20528;-71
2022/07/20 07:47:07;;;;;;;18.23;6.65;;;30.20;79.10;;;;;;5011519;28;20051;-71
2022/07/20 07:49:33;;;;;;;16.33;6.97;;;30.20;79.50;;;;;;5001160;28;20046;-69
2022/07/20 07:51:58;;;;;;;13.18;7.07;;;30.30;79.40;;;;;;4998686;28;20070;-68
2022/07/20 07:54:24;;;;;;;16.92;8.15;;;30.40;79.60;;;;;;4995529;28;20062;-68
2022/07/20 07:56:50;;;;;;;17.15;8.23;;;30.60;80.30;;;;;;5003087;28;20519;-69
2022/07/20 07:59:16;;;;;;;14.18;8.00;;;30.70;80.30;;;;;;5023832;28;20050;-71
2022/07/20 08:01:42;;;;;;;14.90;8.30;;;30.90;80.90;;;;;;4992026;28;20074;-68
2022/07/20 08:04:07;;;;;;;17.95;8.23;;;31.00;81.20;;;;;;4995249;28;20099;-68
2022/07/20 08:06:33;;;;;;;16.80;8.40;;;31.30;81.90;;;;;;4983479;28;20054;-68
2022/07/20 08:08:59;;;;;;;18.25;8.77;;;31.60;82.00;;;;;;4989024;28;20114;-70
2022/07/20 08:11:25;;;;;;;17.38;8.85;;;31.80;81.60;;;;;;4997236;28;20050;-72
2022/07/20 08:13:53;;;;;;;16.45;8.90;;;31.90;81.30;;;;;;4999860;28;20071;-70
2022/07/20 08:16:19;;;;;;;17.05;8.85;;;32.00;81.90;;;;;;5011324;27;20050;-70
2022/07/20 08:18:45;;;;;;;16.45;10.60;;;32.20;81.50;;;;;;5003349;28;20050;-68
2022/07/20 08:21:10;;;;;;;19.83;10.02;;;32.30;81.70;;;;;;4998729;28;20380;-70
2022/07/20 08:23:39;;;;;;;21.80;11.07;;;32.40;82.40;;;;;;4997018;28;20548;-71
2022/07/20 08:26:05;;;;;;;17.58;10.30;;;32.40;81.70;;;;;;4987663;28;20499;-68
2022/07/20 08:28:33;;;;;;;22.65;11.70;;;32.50;82.50;;;;;;4978119;28;20050;-66
2022/07/20 08:31:00;;;;;;;24.60;11.73;;;32.50;82.00;;;;;;4995958;28;20091;-68
2022/07/20 08:33:26;;;;;;;23.02;11.98;;;32.50;81.90;;;;;;5023791;27;20047;-68
2022/07/20 08:35:51;;;;;;;22.27;11.70;;;32.50;81.90;;;;;;4993874;28;20464;-69
2022/07/20 08:38:17;;;;;;;25.58;12.70;;;32.50;82.30;;;;;;4996232;28;20115;-69
2022/07/20 08:40:43;;;;;;;21.13;12.95;;;32.50;82.50;;;;;;4984114;28;20069;-70
2022/07/20 08:43:10;;;;;;;27.80;13.80;;;32.60;82.50;;;;;;5000282;28;20062;-70
2022/07/20 08:45:36;;;;;;;21.75;13.27;;;32.60;82.50;;;;;;4986024;28;20408;-68
2022/07/20 08:48:04;;;;;;;22.42;13.27;;;32.70;83.10;;;;;;4988084;28;20038;-70
2022/07/20 08:50:32;;;;;;;21.30;13.48;;;32.70;83.50;;;;;;5002024;28;20078;-70
2022/07/20 08:52:59;;;;;;;22.05;15.25;;;32.80;84.00;;;;;;4976403;28;20858;-70
2022/07/20 08:55:26;;;;;;;26.23;15.27;;;32.90;83.10;;;;;;4986849;28;20121;-70
2022/07/20 08:57:52;;;;;;;25.50;15.32;;;32.90;82.80;;;;;;4999549;28;20099;-69
2022/07/20 09:00:18;;;;;;;25.15;15.27;;;32.90;83.50;;;;;;5048905;28;20038;-68
2022/07/20 09:02:56;;;;;;;28.08;15.88;;;33.00;83.30;;;;;;4983375;28;20050;-68
2022/07/20 09:05:23;;;;;;;22.83;16.33;;;33.10;82.80;;;;;;5006354;28;20050;-70
2022/07/20 09:07:53;;;;;;;26.20;16.45;;;33.20;82.70;;;;;;4992318;28;20044;-70
2022/07/20 09:10:24;;;;;;;23.27;15.27;;;33.20;82.40;;;;;;4990213;28;20830;-70
2022/07/20 09:13:13;;;;;;;25.40;15.63;;;33.20;83.30;;;;;;4987569;28;20038;-69
2022/07/20 09:15:53;;;;;;;25.20;16.40;;;33.20;84.20;;;;;;5014474;28;20077;-70
2022/07/20 09:18:20;;;;;;;28.63;16.85;;;33.30;82.70;;;;;;4991012;28;20060;-71
2022/07/20 09:20:54;;;;;;;28.63;17.75;;;33.20;82.80;;;;;;4983426;28;20509;-70
2022/07/20 09:23:33;;;;;;;27.45;16.27;;;33.10;82.60;;;;;;5003821;28;20039;-69
2022/07/20 09:25:59;;;;;;;31.88;16.73;;;33.00;82.00;;;;;;4980536;28;20376;-71
2022/07/20 09:28:44;;;;;;;25.90;16.20;;;32.90;82.40;;;;;;4996603;28;20119;-68
2022/07/20 09:31:15;;;;;;;30.83;16.95;;;32.90;83.20;;;;;;5025059;28;20198;-69
2022/07/20 09:33:54;;;;;;;27.60;17.13;;;33.00;83.80;;;;;;5008093;28;20070;-69
2022/07/20 09:36:21;;;;;;;31.42;17.10;;;33.00;83.10;;;;;;4996325;28;20051;-70
2022/07/20 09:38:47;;;;;;;25.10;16.70;;;33.00;83.40;;;;;;5001466;28;20039;-69
2022/07/20 09:41:28;;;;;;;28.73;16.50;;;33.00;82.50;;;;;;5026151;28;20052;-69
2022/07/20 09:43:55;;;;;;;25.42;16.05;;;33.00;82.10;;;;;;4997468;28;20129;-68
2022/07/20 09:46:23;;;;;;;28.42;16.27;;;33.20;82.40;;;;;;5012548;28;20355;-69
2022/07/20 09:48:54;;;;;;;25.50;15.95;;;33.30;82.10;;;;;;5013804;28;20085;-69
2022/07/20 09:51:34;;;;;;;27.58;16.20;;;33.40;82.90;;;;;;4995741;28;20398;-68
2022/07/20 09:54:07;;;;;;;25.23;16.98;;;33.60;83.20;;;;;;4998361;28;20042;-70
2022/07/20 09:56:35;;;;;;;23.90;15.85;;;33.60;82.40;;;;;;5022183;28;20058;-69
2022/07/20 09:59:04;;;;;;;21.92;15.55;;;33.50;82.60;;;;;;5025495;28;20046;-71
2022/07/20 10:01:35;;;;;;;29.13;15.18;;;33.50;81.60;;;;;;5022571;28;20061;-69
2022/07/20 10:04:04;;;;;;;23.48;15.40;;;33.60;80.20;;;;;;5011127;28;20068;-68
2022/07/20 10:06:29;;;;;;;22.67;14.35;;;33.60;77.90;;;;;;4999918;28;20057;-67
2022/07/20 10:08:56;;;;;;;23.17;13.20;;;33.60;78.40;;;;;;5010682;28;20039;-69
2022/07/20 10:11:23;;;;;;;24.38;13.50;;;33.60;78.50;;;;;;5014857;28;20567;-68
2022/07/20 10:13:51;;;;;;;26.48;13.57;;;33.60;77.80;;;;;;5014167;28;20049;-69
2022/07/20 10:16:26;;;;;;;22.88;12.90;;;33.50;76.90;;;;;;4983159;28;20050;-69
2022/07/20 10:18:52;;;;;;;19.80;12.82;;;33.50;76.50;;;;;;5001237;28;20061;-68
2022/07/20 10:21:33;;;;;;;19.95;13.65;;;33.40;76.00;;;;;;5016924;28;20134;-66
2022/07/20 10:24:25;;;;;;;19.15;12.55;;;33.50;76.60;;;;;;5010325;28;20047;-66
2022/07/20 10:27:02;;;;;;;17.45;12.05;;;33.50;76.00;;;;;;5020196;28;20035;-69
2022/07/20 10:29:37;;;;;;;16.30;10.98;;;33.60;75.80;;;;;;5007274;28;20068;-69
2022/07/20 10:32:23;;;;;;;21.52;9.88;;;33.60;75.00;;;;;;5019647;28;20048;-68
2022/07/20 10:34:54;;;;;;;16.90;9.50;;;33.60;73.30;;;;;;5023146;28;20058;-68
2022/07/20 10:37:39;;;;;;;17.23;9.57;;;33.60;73.90;;;;;;5021969;28;20098;-67
2022/07/20 10:40:18;;;;;;;16.73;10.00;;;33.60;74.70;;;;;;5012717;28;21011;-67
2022/07/20 10:42:48;;;;;;;19.60;9.48;;;33.60;74.10;;;;;;4981242;28;20129;-68
2022/07/20 10:45:16;;;;;;;17.05;8.70;;;33.60;74.90;;;;;;4999222;28;20046;-66
2022/07/20 10:47:58;;;;;;;18.80;9.45;;;33.50;73.60;;;;;;5007806;28;20514;-69
2022/07/20 10:50:45;;;;;;;14.55;8.98;;;33.50;74.70;;;;;;4992449;28;20054;-68
2022/07/20 10:53:10;;;;;;;20.42;9.05;;;33.50;74.40;;;;;;4982485;28;20050;-68
2022/07/20 10:55:39;;;;;;;19.63;8.23;;;33.50;74.90;;;;;;5012283;28;20061;-69
2022/07/20 10:58:13;;;;;;;13.77;8.15;;;33.50;74.40;;;;;;5005739;28;20130;-68
2022/07/20 11:00:42;;;;;;;17.05;8.18;;;33.60;74.40;;;;;;4981159;28;20077;-68
2022/07/20 11:03:16;;;;;;;13.55;8.35;;;33.60;74.70;;;;;;4987257;28;20038;-69
2022/07/20 11:05:44;;;;;;;13.45;8.57;;;33.70;74.00;;;;;;4987106;28;20038;-68
2022/07/20 11:08:11;;;;;;;17.55;8.05;;;33.60;73.70;;;;;;5012165;28;20505;-69
2022/07/20 11:10:38;;;;;;;16.23;8.82;;;33.50;74.00;;;;;;5006416;28;20053;-69
2022/07/20 11:13:06;;;;;;;13.05;8.10;;;33.50;74.00;;;;;;5023881;28;20044;-69
2022/07/20 11:15:43;;;;;;;14.15;9.07;;;33.50;72.80;;;;;;5028520;28;20091;-69
2022/07/20 11:18:10;;;;;;;14.77;8.35;;;33.50;72.80;;;;;;5038142;28;20053;-68
2022/07/20 11:20:48;;;;;;;19.20;8.93;;;33.40;72.80;;;;;;5045056;28;20148;-69
2022/07/20 11:23:16;;;;;;;16.45;9.35;;;33.60;73.30;;;;;;5074881;28;20120;-69
2022/07/20 11:25:56;;;;;;;14.57;8.32;;;33.60;71.60;;;;;;5037987;28;20383;-69
2022/07/20 11:28:23;;;;;;;;;;;33.50;71.60;;;;;;5038949;28;20045;-70
2022/07/20 11:30:50;;;;;;;15.02;8.48;;;33.40;72.30;;;;;;5036649;28;20015;-69
2022/07/20 11:33:23;;;;;;;15.68;8.68;;;33.40;72.60;;;;;;5068896;28;20051;-69
2022/07/20 11:35:49;;;;;;;20.38;8.80;;;33.40;73.20;;;;;;5022938;28;20060;-71
2022/07/20 11:38:16;;;;;;;15.38;7.53;;;33.30;72.50;;;;;;5038263;28;20044;-69
2022/07/20 11:40:41;;;;;;;13.15;7.93;;;33.40;70.70;;;;;;5037552;28;20665;-72
2022/07/20 11:43:15;;;;;;;15.02;7.60;;;33.30;71.00;;;;;;5037152;28;20106;-69
2022/07/20 11:45:41;;;;;;;13.80;7.50;;;33.20;71.00;;;;;;5066914;28;20055;-70
2022/07/20 11:48:22;;;;;;;14.35;6.75;;;33.20;71.50;;;;;;5021965;28;20037;-68
2022/07/20 11:50:48;;;;;;;16.27;7.15;;;33.20;70.10;;;;;;5078604;28;20036;-67
2022/07/20 11:53:23;;;;;;;13.80;7.18;;;33.20;69.70;;;;;;5042944;28;20057;-68
2022/07/20 11:55:49;;;;;;;13.55;6.55;;;33.10;69.90;;;;;;5044196;28;20513;-70
2022/07/20 11:58:22;;;;;;;11.98;7.07;;;33.00;70.80;;;;;;5047326;28;20106;-68
2022/07/20 12:00:48;;;;;;;10.18;5.88;;;32.90;69.40;;;;;;5044298;28;20037;-67
2022/07/20 12:03:14;;;;;;;13.80;7.38;;;32.90;69.60;;;;;;5046495;28;20056;-69
2022/07/20 12:05:39;;;;;;;12.02;6.53;;;32.90;70.20;;;;;;5048271;28;20032;-68
2022/07/20 12:08:15;;;;;;;16.77;6.85;;;33.00;70.50;;;;;;5047855;28;20113;-68
2022/07/20 12:10:46;;;;;;;12.55;6.80;;;33.00;70.00;;;;;;5045989;28;20569;-68
2022/07/20 12:13:13;;;;;;;16.30;6.93;;;33.10;70.50;;;;;;5062855;28;20077;-69
2022/07/20 12:15:50;;;;;;;11.98;6.63;;;33.10;70.80;;;;;;5077164;28;20061;-69
2022/07/20 12:18:34;;;;;;;13.40;6.35;;;33.20;71.20;;;;;;5011810;28;20048;-68
2022/07/20 12:21:01;;;;;;;13.30;6.88;;;33.20;70.20;;;;;;5015931;28;20415;-67
2022/07/20 12:23:27;;;;;;;13.25;7.43;;;33.30;70.60;;;;;;5008411;28;20042;-67
2022/07/20 12:25:53;;;;;;;15.00;7.80;;;33.20;69.70;;;;;;5021734;28;20115;-68
2022/07/20 12:28:36;;;;;;;16.35;8.43;;;33.10;69.50;;;;;;4989071;28;20046;-69
2022/07/20 12:31:16;;;;;;;12.82;8.38;;;32.90;67.50;;;;;;5017529;28;20081;-69
2022/07/20 12:34:07;;;;;;;14.57;8.30;;;32.80;67.80;;;;;;5005822;28;20107;-69
2022/07/20 12:36:33;;;;;;;13.27;8.00;;;32.60;67.10;;;;;;4993302;28;20080;-67
2022/07/20 12:38:59;;;;;;;14.52;8.50;;;32.60;68.00;;;;;;4998094;28;20139;-70
2022/07/20 12:41:25;;;;;;;13.25;8.40;;;32.50;68.30;;;;;;5009553;28;20049;-69
2022/07/20 12:43:50;;;;;;;16.45;8.80;;;32.50;68.00;;;;;;5031920;28;20516;-69
2022/07/20 12:46:16;;;;;;;14.75;9.20;;;32.40;68.20;;;;;;5022954;28;20045;-70
2022/07/20 12:48:50;;;;;;;15.65;8.43;;;32.50;68.30;;;;;;5011872;28;20519;-68